Fai una donazione per la manutenzione ed il rinnovamento della strumentazione meteorologica e per il sito che la ospita.


Webcam more information Webcam


avvertimento per Temporali more information blitzortung!


altri nostri siti meteo:

Previsioni audio clicca per ascoltarePrevisioni audio

RISCHIO INCENDIRischio incendi

PomeziameteoSito sul meteo

MeteopomeziaSito sul meteo

Pomeziameteo DashboardSito sul meteo

Caput FrigorisSito sul meteo

BarcellonameteoSito sul meteo

MeteoipassiSito sul meteo

TortoretometeolidoSito sul meteo

CastelnuovovomanometeoSito sul meteo

MeteogonzagaSito sul meteo

MeteonetworkInvio dai a Meteonetwork

Weather UndergroundInvio dai a Weather Underground



Temporali Da: 20-09-2020 13:00 Fino a: 21-09-2020 00:59 Avvertimento per: Temporali Livello: Giallo info button

Report METAR

   
LIRV - Viterbo (it-Mil), Italy
Distanza dalla stazione: W 4 km
Dati ricevuti: 19-09-2020 18:55
DATI Obsoleti
Sereno  
Sereno  
   Vento: W 9.3 km/h
Vento: W 9.3 km/h
Temperatura: 25°C
P.to Rugiada: 23°C
Umidita: 89%
Barometro: 1017 hPa
Visibilita: oltre 10 km
dettagli cloud: Sereno
LIRV 191655Z 25005KT CAVOK 25/23 Q1017
LIQN - Rieti, Italy
Distanza dalla stazione: E 59 km
Dati ricevuti: 19-09-2020 19:50
DATI Obsoleti
Sereno  
Sereno  
   Vento: Variabile 5.6 km/h
Vento: Variabile 5.6 km/h
Temperatura: 24°C
P.to Rugiada: 17°C
Umidita: 65%
Barometro: 1016 hPa
Visibilita: oltre 10 km
dettagli cloud: Sereno
LIQN 191750Z VRB03KT CAVOK 24/17 Q1016
LIRU - Rome/Urbe (it-Af, Italy
Distanza dalla stazione: S 61 km
Dati ricevuti: 19-09-2020 19:50
DATI Obsoleti
Sereno  
Sereno  
   Vento: West 9.3 km/h
Vento: West 9.3 km/h
Temperatura: 26°C
P.to Rugiada: 20°C
Umidita: 70%
Barometro: 1016 hPa
Visibilita: oltre 10 km
dettagli cloud: Sereno
LIRU 191750Z 28005KT CAVOK 26/20 Q1016
LIRG - Guidonia (it-Afb, Italy
Distanza dalla stazione: SE 68 km
Dati ricevuti: 18-09-2020 19:55
DATI Obsoleti
Sereno  
Sereno  
   Vento: W 3.7 km/h
Vento: W 3.7 km/h
Temperatura: 27°C
Indice di Calore: 27°C
P.to Rugiada: 15°C
Umidita: 48%
Barometro: 1015 hPa
Visibilita: oltre 10 km
dettagli cloud: Sereno
LIRG 181755Z 24002KT CAVOK 27/15 Q1015
LIRK - Terminillo Mount, Italy
Distanza dalla stazione: E 70 km
Dati ricevuti: 20-09-2020 01:55
  
  
   Vento: West 13 km/h
Vento: West 13 km/h
Temperatura: 13°C
P.to Rugiada: 5°C
Umidita: 59%
Barometro: 1026 hPa
LIRK 192355Z AUTO 28007KT //// 13/05 Q1026
 

Script sviluppato da  Saratoga-weather.org Adattato per il modello da  Weerstation Leuven

Strumentazione usata:

Stazione meteo
Davis VP2

Programma gestore dati meteo
WVIEW

Server per i dati meteo
WDS-5

Davis VP2

WVIEW

WDS-5